TimeMST,TemperatureF,Dew PointF,Humidity,Sea Level PressureIn,VisibilityMPH,Wind Direction,Wind SpeedMPH,Gust SpeedMPH,PrecipitationIn,Events,Conditions,WindDirDegrees,DateUTC
12:55 AM,30.9,26.1,82,29.67,10.0,West,5.8,-,N/A,,Clear,270,2013-11-20 07:55:00
1:55 AM,30.9,26.1,82,29.69,10.0,WNW,5.8,-,N/A,,Clear,290,2013-11-20 08:55:00
2:55 AM,30.0,26.1,85,29.70,10.0,Calm,Calm,-,N/A,,Clear,0,2013-11-20 09:55:00
3:55 AM,32.0,27.0,82,29.73,10.0,West,6.9,-,N/A,,Clear,280,2013-11-20 10:55:00
4:55 AM,28.9,25.0,85,29.75,10.0,WNW,5.8,-,N/A,,Clear,300,2013-11-20 11:55:00
5:55 AM,27.0,24.1,89,29.77,10.0,WNW,4.6,-,N/A,,Clear,300,2013-11-20 12:55:00
6:55 AM,27.0,24.1,89,29.83,10.0,WSW,8.1,-,N/A,,Clear,250,2013-11-20 13:55:00
7:55 AM,34.0,28.0,79,29.85,10.0,North,13.8,-,N/A,,Clear,10,2013-11-20 14:55:00
8:55 AM,33.1,27.0,78,29.88,10.0,NNE,11.5,-,N/A,,Partly Cloudy,20,2013-11-20 15:55:00
9:55 AM,33.1,26.1,75,29.91,10.0,NNE,10.4,-,N/A,,Scattered Clouds,20,2013-11-20 16:55:00
10:06 AM,33.8,26.6,75,29.86,10.0,NNE,8.1,-,N/A,,Mostly Cloudy,30,2013-11-20 17:06:00
10:55 AM,35.1,26.1,70,29.90,10.0,North,9.2,-,N/A,,Mostly Cloudy,360,2013-11-20 17:55:00
11:04 AM,33.8,26.6,75,29.85,10.0,North,8.1,-,N/A,,Scattered Clouds,360,2013-11-20 18:04:00
11:55 AM,36.0,25.0,64,29.89,10.0,North,9.2,-,N/A,,Partly Cloudy,350,2013-11-20 18:55:00
12:55 PM,36.0,25.0,64,29.88,10.0,North,5.8,-,N/A,,Clear,360,2013-11-20 19:55:00
1:55 PM,37.9,25.0,60,29.86,10.0,NNE,6.9,-,N/A,,Clear,30,2013-11-20 20:55:00
2:55 PM,37.0,24.1,59,29.88,10.0,NE,6.9,-,N/A,,Clear,40,2013-11-20 21:55:00
3:55 PM,37.0,24.1,59,29.96,10.0,North,11.5,-,N/A,,Overcast,350,2013-11-20 22:55:00
4:55 PM,32.0,19.9,61,30.06,10.0,North,17.3,26.5,N/A,,Overcast,350,2013-11-20 23:55:00
5:55 PM,28.9,17.1,61,30.13,10.0,North,23.0,36.8,N/A,,Overcast,350,2013-11-21 00:55:00
6:55 PM,23.0,14.0,68,30.20,10.0,North,23.0,39.1,N/A,,Overcast,360,2013-11-21 01:55:00
7:11 PM,23.0,12.2,63,30.14,10.0,North,21.9,33.4,N/A,,Overcast,360,2013-11-21 02:11:00
7:35 PM,23.0,12.2,63,30.14,10.0,North,21.9,27.6,N/A,,Overcast,350,2013-11-21 02:35:00
7:52 PM,23.0,12.2,63,30.16,10.0,NNW,25.3,31.1,N/A,,Overcast,340,2013-11-21 02:52:00
7:55 PM,23.0,12.0,63,30.24,10.0,NNW,26.5,32.2,N/A,,Overcast,340,2013-11-21 02:55:00
8:40 PM,21.2,8.6,58,30.21,10.0,North,23.0,33.4,N/A,,Overcast,350,2013-11-21 03:40:00
8:55 PM,21.0,10.0,63,30.29,10.0,NNW,20.7,31.1,N/A,,Overcast,330,2013-11-21 03:55:00
9:55 PM,19.0,10.9,71,30.33,9.0,NNW,20.7,31.1,0.00,Snow,Light Snow,330,2013-11-21 04:55:00
10:37 PM,17.6,10.4,73,30.27,2.5,NNW,20.7,32.2,0.00,Snow,Light Snow,330,2013-11-21 05:37:00
10:41 PM,17.6,10.4,73,30.27,3.0,NNW,25.3,31.1,0.00,Snow,Light Snow,330,2013-11-21 05:41:00
10:55 PM,17.1,9.0,71,30.36,9.0,NNW,24.2,34.5,0.00,Snow,Light Snow,330,2013-11-21 05:55:00
11:55 PM,16.0,8.1,71,30.39,6.0,NNW,24.2,31.1,0.00,Snow,Light Snow,340,2013-11-21 06:55:00